sensor_id;sensor_type;location;lat;lon;timestamp;pressure;altitude;pressure_sealevel;temperature;humidity
56944;BME280;42848;42.524;12.052;2023-04-06T00:01:47;96589.41;;;2.70;100.00
56944;BME280;42848;42.524;12.052;2023-04-06T00:04:13;96587.81;;;2.69;100.00
56944;BME280;42848;42.524;12.052;2023-04-06T00:06:39;96593.97;;;2.69;100.00
56944;BME280;42848;42.524;12.052;2023-04-06T00:09:04;96600.16;;;2.60;100.00
56944;BME280;42848;42.524;12.052;2023-04-06T00:11:30;96590.25;;;2.60;100.00
56944;BME280;42848;42.524;12.052;2023-04-06T00:13:56;96598.28;;;2.55;100.00
56944;BME280;42848;42.524;12.052;2023-04-06T00:16:21;96596.69;;;2.54;100.00
56944;BME280;42848;42.524;12.052;2023-04-06T00:18:47;96599.38;;;2.59;100.00
56944;BME280;42848;42.524;12.052;2023-04-06T00:21:14;96596.97;;;2.58;100.00
56944;BME280;42848;42.524;12.052;2023-04-06T00:23:40;96595.34;;;2.56;100.00
56944;BME280;42848;42.524;12.052;2023-04-06T00:26:06;96596.41;;;2.55;100.00
56944;BME280;42848;42.524;12.052;2023-04-06T00:28:32;96605.03;;;2.47;100.00
56944;BME280;42848;42.524;12.052;2023-04-06T00:30:58;96599.13;;;2.50;100.00
56944;BME280;42848;42.524;12.052;2023-04-06T00:33:23;96604.44;;;2.61;100.00
56944;BME280;42848;42.524;12.052;2023-04-06T00:35:49;96602.84;;;2.54;100.00
56944;BME280;42848;42.524;12.052;2023-04-06T00:38:16;96595.09;;;2.43;100.00
56944;BME280;42848;42.524;12.052;2023-04-06T00:40:42;96595.66;;;2.40;100.00
56944;BME280;42848;42.524;12.052;2023-04-06T00:43:10;96598.28;;;2.55;100.00
56944;BME280;42848;42.524;12.052;2023-04-06T00:45:38;96601.28;;;2.38;100.00
56944;BME280;42848;42.524;12.052;2023-04-06T00:48:05;96603.94;;;2.48;100.00
56944;BME280;42848;42.524;12.052;2023-04-06T00:50:31;96592.44;;;2.48;100.00
56944;BME280;42848;42.524;12.052;2023-04-06T00:52:56;96600.22;;;2.39;100.00
56944;BME280;42848;42.524;12.052;2023-04-06T00:55:22;96597.50;;;2.44;100.00
56944;BME280;42848;42.524;12.052;2023-04-06T00:57:48;96598.59;;;2.48;100.00
56944;BME280;42848;42.524;12.052;2023-04-06T01:00:16;96593.75;;;2.45;100.00
56944;BME280;42848;42.524;12.052;2023-04-06T01:02:42;96585.72;;;2.50;100.00
56944;BME280;42848;42.524;12.052;2023-04-06T01:05:10;96586.78;;;2.44;100.00
56944;BME280;42848;42.524;12.052;2023-04-06T01:07:36;96589.16;;;2.56;100.00
56944;BME280;42848;42.524;12.052;2023-04-06T01:10:02;96591.34;;;2.44;100.00
56944;BME280;42848;42.524;12.052;2023-04-06T01:12:28;96575.81;;;2.51;100.00
56944;BME280;42848;42.524;12.052;2023-04-06T01:14:54;96579.00;;;2.53;100.00
56944;BME280;42848;42.524;12.052;2023-04-06T01:17:20;96579.03;;;2.43;100.00
56944;BME280;42848;42.524;12.052;2023-04-06T01:19:46;96581.38;;;2.65;100.00
56944;BME280;42848;42.524;12.052;2023-04-06T01:22:17;96582.75;;;2.52;100.00
56944;BME280;42848;42.524;12.052;2023-04-06T01:24:44;96590.81;;;2.52;100.00
56944;BME280;42848;42.524;12.052;2023-04-06T01:27:10;96595.34;;;2.56;100.00
56944;BME280;42848;42.524;12.052;2023-04-06T01:29:36;96580.31;;;2.61;100.00
56944;BME280;42848;42.524;12.052;2023-04-06T01:32:01;96583.00;;;2.55;100.00
56944;BME280;42848;42.524;12.052;2023-04-06T01:34:27;96573.38;;;2.60;100.00
56944;BME280;42848;42.524;12.052;2023-04-06T01:36:53;96587.00;;;2.63;100.00
56944;BME280;42848;42.524;12.052;2023-04-06T01:39:19;96599.09;;;2.66;100.00
56944;BME280;42848;42.524;12.052;2023-04-06T01:41:45;96583.81;;;2.66;100.00
56944;BME280;42848;42.524;12.052;2023-04-06T01:44:15;96578.16;;;2.68;100.00
56944;BME280;42848;42.524;12.052;2023-04-06T01:46:41;96581.91;;;2.72;100.00
56944;BME280;42848;42.524;12.052;2023-04-06T01:49:07;96582.44;;;2.69;100.00
56944;BME280;42848;42.524;12.052;2023-04-06T01:51:33;96585.41;;;2.67;100.00
56944;BME280;42848;42.524;12.052;2023-04-06T01:53:58;96571.72;;;2.69;100.00
56944;BME280;42848;42.524;12.052;2023-04-06T01:56:24;96578.69;;;2.70;100.00
56944;BME280;42848;42.524;12.052;2023-04-06T01:58:50;96580.84;;;2.68;100.00
56944;BME280;42848;42.524;12.052;2023-04-06T02:01:16;96587.00;;;2.68;100.00
56944;BME280;42848;42.524;12.052;2023-04-06T02:03:41;96586.72;;;2.70;100.00
56944;BME280;42848;42.524;12.052;2023-04-06T02:06:09;96571.47;;;2.70;100.00
56944;BME280;42848;42.524;12.052;2023-04-06T02:08:34;96578.13;;;2.73;100.00
56944;BME280;42848;42.524;12.052;2023-04-06T02:11:00;96576.56;;;2.67;100.00
56944;BME280;42848;42.524;12.052;2023-04-06T02:13:26;96572.28;;;2.66;100.00
56944;BME280;42848;42.524;12.052;2023-04-06T02:15:52;96582.22;;;2.65;100.00
56944;BME280;42848;42.524;12.052;2023-04-06T02:18:17;96585.94;;;2.64;100.00
56944;BME280;42848;42.524;12.052;2023-04-06T02:20:44;96581.66;;;2.68;100.00
56944;BME280;42848;42.524;12.052;2023-04-06T02:23:10;96581.66;;;2.63;100.00
56944;BME280;42848;42.524;12.052;2023-04-06T02:25:35;96584.59;;;2.67;100.00
56944;BME280;42848;42.524;12.052;2023-04-06T02:28:01;96576.00;;;2.70;100.00
56944;BME280;42848;42.524;12.052;2023-04-06T02:30:27;96580.31;;;2.66;100.00
56944;BME280;42848;42.524;12.052;2023-04-06T02:32:54;96583.53;;;2.68;100.00
56944;BME280;42848;42.524;12.052;2023-04-06T02:35:20;96576.00;;;2.65;100.00
56944;BME280;42848;42.524;12.052;2023-04-06T02:37:45;96590.50;;;2.64;100.00
56944;BME280;42848;42.524;12.052;2023-04-06T02:40:11;96587.81;;;2.69;100.00
56944;BME280;42848;42.524;12.052;2023-04-06T02:42:37;96576.56;;;2.62;100.00
56944;BME280;42848;42.524;12.052;2023-04-06T02:45:03;96574.16;;;2.60;100.00
56944;BME280;42848;42.524;12.052;2023-04-06T02:47:28;96579.25;;;2.67;100.00
56944;BME280;42848;42.524;12.052;2023-04-06T02:49:54;96581.94;;;2.62;100.00
56944;BME280;42848;42.524;12.052;2023-04-06T02:52:20;96597.47;;;2.54;100.00
56944;BME280;42848;42.524;12.052;2023-04-06T02:54:45;96582.50;;;2.59;100.00
56944;BME280;42848;42.524;12.052;2023-04-06T02:57:11;96595.88;;;2.59;100.00
56944;BME280;42848;42.524;12.052;2023-04-06T02:59:37;96595.59;;;2.55;100.00
56944;BME280;42848;42.524;12.052;2023-04-06T03:02:02;96600.72;;;2.51;100.00
56944;BME280;42848;42.524;12.052;2023-04-06T03:04:28;96612.22;;;2.52;100.00
56944;BME280;42848;42.524;12.052;2023-04-06T03:06:54;96598.28;;;2.55;100.00
56944;BME280;42848;42.524;12.052;2023-04-06T03:09:20;96606.56;;;2.64;100.00
56944;BME280;42848;42.524;12.052;2023-04-06T03:11:46;96601.53;;;2.57;100.00
56944;BME280;42848;42.524;12.052;2023-04-06T03:14:12;96598.31;;;2.50;100.00
56944;BME280;42848;42.524;12.052;2023-04-06T03:16:38;96604.47;;;2.35;100.00
56944;BME280;42848;42.524;12.052;2023-04-06T03:19:03;96603.38;;;2.46;100.00
56944;BME280;42848;42.524;12.052;2023-04-06T03:21:29;96599.66;;;2.42;100.00
56944;BME280;42848;42.524;12.052;2023-04-06T03:23:55;96605.28;;;2.36;100.00
56944;BME280;42848;42.524;12.052;2023-04-06T03:26:21;96608.75;;;2.46;100.00
56944;BME280;42848;42.524;12.052;2023-04-06T03:28:47;96612.53;;;2.30;100.00
56944;BME280;42848;42.524;12.052;2023-04-06T03:31:13;96618.16;;;2.23;100.00
56944;BME280;42848;42.524;12.052;2023-04-06T03:33:39;96610.41;;;2.22;100.00
56944;BME280;42848;42.524;12.052;2023-04-06T03:36:05;96624.03;;;2.25;100.00
56944;BME280;42848;42.524;12.052;2023-04-06T03:38:32;96615.75;;;2.32;100.00
56944;BME280;42848;42.524;12.052;2023-04-06T03:40:57;96617.34;;;2.33;100.00
56944;BME280;42848;42.524;12.052;2023-04-06T03:43:23;96629.69;;;2.24;100.00
56944;BME280;42848;42.524;12.052;2023-04-06T03:45:49;96621.09;;;2.17;100.00
56944;BME280;42848;42.524;12.052;2023-04-06T03:48:15;96627.00;;;2.09;100.00
56944;BME280;42848;42.524;12.052;2023-04-06T03:50:40;96626.47;;;2.22;100.00
56944;BME280;42848;42.524;12.052;2023-04-06T03:53:06;96630.22;;;2.16;100.00
56944;BME280;42848;42.524;12.052;2023-04-06T03:55:32;96626.47;;;2.22;100.00
56944;BME280;42848;42.524;12.052;2023-04-06T03:57:57;96635.59;;;2.11;100.00
56944;BME280;42848;42.524;12.052;2023-04-06T04:00:23;96630.47;;;2.14;100.00
56944;BME280;42848;42.524;12.052;2023-04-06T04:02:49;96629.69;;;2.04;100.00
56944;BME280;42848;42.524;12.052;2023-04-06T04:05:14;96640.66;;;2.02;100.00
56944;BME280;42848;42.524;12.052;2023-04-06T04:07:40;96624.59;;;2.17;100.00
56944;BME280;42848;42.524;12.052;2023-04-06T04:10:06;96628.06;;;2.08;100.00
56944;BME280;42848;42.524;12.052;2023-04-06T04:12:32;96630.22;;;2.11;100.00
56944;BME280;42848;42.524;12.052;2023-04-06T04:14:57;96638.25;;;2.21;100.00
56944;BME280;42848;42.524;12.052;2023-04-06T04:17:24;96636.63;;;2.10;100.00
56944;BME280;42848;42.524;12.052;2023-04-06T04:19:50;96630.75;;;2.03;100.00
56944;BME280;42848;42.524;12.052;2023-04-06T04:22:16;96620.03;;;2.08;100.00
56944;BME280;42848;42.524;12.052;2023-04-06T04:24:41;96623.81;;;2.02;100.00
56944;BME280;42848;42.524;12.052;2023-04-06T04:27:07;96627.53;;;2.06;100.00
56944;BME280;42848;42.524;12.052;2023-04-06T04:29:33;96630.75;;;2.03;100.00
56944;BME280;42848;42.524;12.052;2023-04-06T04:31:58;96622.19;;;2.06;100.00
56944;BME280;42848;42.524;12.052;2023-04-06T04:34:24;96627.78;;;1.89;100.00
56944;BME280;42848;42.524;12.052;2023-04-06T04:36:53;96629.13;;;1.81;100.00
56944;BME280;42848;42.524;12.052;2023-04-06T04:39:19;96632.63;;;1.87;100.00
56944;BME280;42848;42.524;12.052;2023-04-06T04:41:45;96643.56;;;1.75;100.00
56944;BME280;42848;42.524;12.052;2023-04-06T04:44:10;96638.50;;;1.99;100.00
56944;BME280;42848;42.524;12.052;2023-04-06T04:46:36;96639.56;;;1.83;100.00
56944;BME280;42848;42.524;12.052;2023-04-06T04:49:01;96636.91;;;1.88;100.00
56944;BME280;42848;42.524;12.052;2023-04-06T04:51:27;96638.75;;;1.82;100.00
56944;BME280;42848;42.524;12.052;2023-04-06T04:53:53;96636.34;;;1.81;100.00
56944;BME280;42848;42.524;12.052;2023-04-06T04:56:19;96639.84;;;1.76;100.00
56944;BME280;42848;42.524;12.052;2023-04-06T04:58:44;96642.50;;;1.76;100.00
56944;BME280;42848;42.524;12.052;2023-04-06T05:01:10;96650.25;;;1.83;100.00
56944;BME280;42848;42.524;12.052;2023-04-06T05:03:36;96645.72;;;1.83;100.00
56944;BME280;42848;42.524;12.052;2023-04-06T05:06:04;96652.16;;;1.87;100.00
56944;BME280;42848;42.524;12.052;2023-04-06T05:08:30;96643.06;;;1.88;100.00
56944;BME280;42848;42.524;12.052;2023-04-06T05:10:56;96640.38;;;1.83;100.00
56944;BME280;42848;42.524;12.052;2023-04-06T05:13:22;96648.94;;;1.85;100.00
56944;BME280;42848;42.524;12.052;2023-04-06T05:15:48;96651.91;;;1.94;100.00
56944;BME280;42848;42.524;12.052;2023-04-06T05:18:13;96657.22;;;1.89;100.00
56944;BME280;42848;42.524;12.052;2023-04-06T05:20:40;96656.97;;;1.90;100.00
56944;BME280;42848;42.524;12.052;2023-04-06T05:23:05;96655.34;;;1.89;100.00
56944;BME280;42848;42.524;12.052;2023-04-06T05:25:32;96654.31;;;1.95;100.00
56944;BME280;42848;42.524;12.052;2023-04-06T05:27:58;96653.25;;;2.02;100.00
56944;BME280;42848;42.524;12.052;2023-04-06T05:30:23;96666.88;;;2.10;100.00
56944;BME280;42848;42.524;12.052;2023-04-06T05:32:50;96658.06;;;2.05;100.00
56944;BME280;42848;42.524;12.052;2023-04-06T05:35:16;96655.91;;;2.17;100.00
56944;BME280;42848;42.524;12.052;2023-04-06T05:37:42;96662.88;;;2.23;100.00
56944;BME280;42848;42.524;12.052;2023-04-06T05:40:08;96660.19;;;2.28;100.00
56944;BME280;42848;42.524;12.052;2023-04-06T05:42:38;96665.56;;;2.33;100.00
56944;BME280;42848;42.524;12.052;2023-04-06T05:45:06;96657.53;;;2.43;100.00
56944;BME280;42848;42.524;12.052;2023-04-06T05:47:31;96669.84;;;2.49;100.00
56944;BME280;42848;42.524;12.052;2023-04-06T05:49:57;96659.91;;;2.55;100.00
56944;BME280;42848;42.524;12.052;2023-04-06T05:52:23;96658.84;;;2.66;100.00
56944;BME280;42848;42.524;12.052;2023-04-06T05:54:49;96655.34;;;2.71;100.00
56944;BME280;42848;42.524;12.052;2023-04-06T05:57:15;96649.94;;;2.81;100.00
56944;BME280;42848;42.524;12.052;2023-04-06T05:59:42;96656.91;;;2.87;100.00
56944;BME280;42848;42.524;12.052;2023-04-06T06:02:07;96664.41;;;2.95;100.00
56944;BME280;42848;42.524;12.052;2023-04-06T06:04:33;96667.88;;;2.96;100.00
56944;BME280;42848;42.524;12.052;2023-04-06T06:07:00;96664.66;;;3.04;100.00
56944;BME280;42848;42.524;12.052;2023-04-06T06:09:26;96681.78;;;3.08;99.85
56944;BME280;42848;42.524;12.052;2023-04-06T06:11:51;96670.25;;;3.12;98.92
56944;BME280;42848;42.524;12.052;2023-04-06T06:14:17;96684.72;;;3.17;98.52
56944;BME280;42848;42.524;12.052;2023-04-06T06:16:43;96687.38;;;3.27;98.62
56944;BME280;42848;42.524;12.052;2023-04-06T06:19:08;96683.06;;;3.26;97.96
56944;BME280;42848;42.524;12.052;2023-04-06T06:21:34;96685.19;;;3.34;98.02
56944;BME280;42848;42.524;12.052;2023-04-06T06:24:00;96691.09;;;3.36;96.92
56944;BME280;42848;42.524;12.052;2023-04-06T06:26:26;96684.88;;;3.46;96.55
56944;BME280;42848;42.524;12.052;2023-04-06T06:28:52;96682.47;;;3.49;95.51
56944;BME280;42848;42.524;12.052;2023-04-06T06:31:17;96696.91;;;3.53;94.43
56944;BME280;42848;42.524;12.052;2023-04-06T06:33:46;96689.66;;;3.59;94.95
56944;BME280;42848;42.524;12.052;2023-04-06T06:36:16;96695.28;;;3.62;93.56
56944;BME280;42848;42.524;12.052;2023-04-06T06:38:42;96690.97;;;3.61;94.26
56944;BME280;42848;42.524;12.052;2023-04-06T06:41:08;96686.66;;;3.65;93.99
56944;BME280;42848;42.524;12.052;2023-04-06T06:43:33;96693.09;;;3.64;93.13
56944;BME280;42848;42.524;12.052;2023-04-06T06:45:59;96686.63;;;3.76;94.29
56944;BME280;42848;42.524;12.052;2023-04-06T06:48:25;96679.09;;;3.78;93.39
56944;BME280;42848;42.524;12.052;2023-04-06T06:50:51;96689.56;;;3.79;91.68
56944;BME280;42848;42.524;12.052;2023-04-06T06:53:16;96686.81;;;3.89;92.04
56944;BME280;42848;42.524;12.052;2023-04-06T06:55:42;96688.13;;;3.92;90.15
56944;BME280;42848;42.524;12.052;2023-04-06T06:58:09;96697.81;;;3.88;89.63
56944;BME280;42848;42.524;12.052;2023-04-06T07:00:35;96694.78;;;4.05;91.28
56944;BME280;42848;42.524;12.052;2023-04-06T07:03:01;96698.50;;;4.09;91.91
56944;BME280;42848;42.524;12.052;2023-04-06T07:05:27;96709.28;;;4.04;87.80
56944;BME280;42848;42.524;12.052;2023-04-06T07:07:53;96700.94;;;4.05;86.41
56944;BME280;42848;42.524;12.052;2023-04-06T07:10:19;96717.78;;;4.16;87.55
56944;BME280;42848;42.524;12.052;2023-04-06T07:12:45;96716.75;;;4.12;88.05
56944;BME280;42848;42.524;12.052;2023-04-06T07:15:11;96720.69;;;4.24;87.78
56944;BME280;42848;42.524;12.052;2023-04-06T07:17:37;96717.97;;;4.29;88.04
56944;BME280;42848;42.524;12.052;2023-04-06T07:20:03;96731.34;;;4.40;86.37
56944;BME280;42848;42.524;12.052;2023-04-06T07:22:29;96722.78;;;4.33;84.81
56944;BME280;42848;42.524;12.052;2023-04-06T07:24:54;96715.47;;;4.38;84.83
56944;BME280;42848;42.524;12.052;2023-04-06T07:27:20;96728.91;;;4.43;84.65
56944;BME280;42848;42.524;12.052;2023-04-06T07:29:46;96726.50;;;4.37;81.63
56944;BME280;42848;42.524;12.052;2023-04-06T07:32:12;96729.66;;;4.49;81.82
56944;BME280;42848;42.524;12.052;2023-04-06T07:34:37;96733.56;;;4.67;82.16
56944;BME280;42848;42.524;12.052;2023-04-06T07:37:03;96733.28;;;4.68;82.65
56944;BME280;42848;42.524;12.052;2023-04-06T07:39:29;96728.50;;;4.60;81.66
56944;BME280;42848;42.524;12.052;2023-04-06T07:41:54;96738.78;;;4.82;82.96
56944;BME280;42848;42.524;12.052;2023-04-06T07:44:20;96724.03;;;4.79;80.50
56944;BME280;42848;42.524;12.052;2023-04-06T07:46:46;96738.47;;;4.89;82.69
56944;BME280;42848;42.524;12.052;2023-04-06T07:49:11;96732.81;;;4.90;83.24
56944;BME280;42848;42.524;12.052;2023-04-06T07:51:38;96721.94;;;5.00;82.98
56944;BME280;42848;42.524;12.052;2023-04-06T07:54:04;96721.91;;;5.05;83.74
56944;BME280;42848;42.524;12.052;2023-04-06T07:56:30;96727.31;;;5.29;86.17
56944;BME280;42848;42.524;12.052;2023-04-06T07:58:56;96727.66;;;5.47;82.72
56944;BME280;42848;42.524;12.052;2023-04-06T08:01:22;96718.56;;;5.42;79.21
56944;BME280;42848;42.524;12.052;2023-04-06T08:03:48;96721.44;;;5.51;79.80
56944;BME280;42848;42.524;12.052;2023-04-06T08:06:14;96718.91;;;5.60;77.30
56944;BME280;42848;42.524;12.052;2023-04-06T08:08:41;96718.16;;;5.54;79.60
56944;BME280;42848;42.524;12.052;2023-04-06T08:11:07;96719.03;;;5.50;74.44
56944;BME280;42848;42.524;12.052;2023-04-06T08:13:33;96710.75;;;5.65;76.95
56944;BME280;42848;42.524;12.052;2023-04-06T08:15:59;96720.53;;;5.80;78.00
56944;BME280;42848;42.524;12.052;2023-04-06T08:18:25;96732.16;;;5.75;75.55
56944;BME280;42848;42.524;12.052;2023-04-06T08:20:51;96725.03;;;5.84;75.49
56944;BME280;42848;42.524;12.052;2023-04-06T08:23:17;96728.78;;;5.88;75.63
56944;BME280;42848;42.524;12.052;2023-04-06T08:25:43;96733.38;;;5.88;77.42
56944;BME280;42848;42.524;12.052;2023-04-06T08:28:09;96728.38;;;6.00;73.29
56944;BME280;42848;42.524;12.052;2023-04-06T08:30:35;96734.84;;;5.99;73.86
56944;BME280;42848;42.524;12.052;2023-04-06T08:33:01;96739.81;;;6.11;73.96
56944;BME280;42848;42.524;12.052;2023-04-06T08:35:27;96732.81;;;6.10;72.52
56944;BME280;42848;42.524;12.052;2023-04-06T08:37:53;96741.16;;;6.32;75.08
56944;BME280;42848;42.524;12.052;2023-04-06T08:40:18;96741.41;;;6.31;74.56
56944;BME280;42848;42.524;12.052;2023-04-06T08:42:50;96726.56;;;6.33;74.05
56944;BME280;42848;42.524;12.052;2023-04-06T08:45:16;96741.50;;;6.44;74.29
56944;BME280;42848;42.524;12.052;2023-04-06T08:47:43;96744.41;;;6.48;70.69
56944;BME280;42848;42.524;12.052;2023-04-06T08:50:10;96750.38;;;6.45;67.39
56944;BME280;42848;42.524;12.052;2023-04-06T08:52:37;96739.41;;;6.41;67.99
56944;BME280;42848;42.524;12.052;2023-04-06T08:55:03;96738.81;;;6.44;70.46
56944;BME280;42848;42.524;12.052;2023-04-06T08:57:31;96743.38;;;6.63;74.80
56944;BME280;42848;42.524;12.052;2023-04-06T08:59:57;96753.81;;;6.69;70.54
56944;BME280;42848;42.524;12.052;2023-04-06T09:02:26;96747.59;;;6.69;67.99
56944;BME280;42848;42.524;12.052;2023-04-06T09:04:53;96744.91;;;6.69;64.30
56944;BME280;42848;42.524;12.052;2023-04-06T09:07:20;96736.94;;;6.77;67.57
56944;BME280;42848;42.524;12.052;2023-04-06T09:09:47;96750.78;;;6.90;71.56
56944;BME280;42848;42.524;12.052;2023-04-06T09:12:27;96745.53;;;6.79;68.71
56944;BME280;42848;42.524;12.052;2023-04-06T09:14:53;96747.50;;;6.74;66.61
56944;BME280;42848;42.524;12.052;2023-04-06T09:17:24;96740.34;;;6.83;67.73
56944;BME280;42848;42.524;12.052;2023-04-06T09:19:50;96746.19;;;7.04;72.14
56944;BME280;42848;42.524;12.052;2023-04-06T09:22:16;96743.22;;;7.05;71.15
56944;BME280;42848;42.524;12.052;2023-04-06T09:24:48;96751.81;;;7.07;70.12
56944;BME280;42848;42.524;12.052;2023-04-06T09:27:14;96757.63;;;7.15;70.38
56944;BME280;42848;42.524;12.052;2023-04-06T09:29:40;96762.44;;;7.18;70.29
56944;BME280;42848;42.524;12.052;2023-04-06T09:32:08;96761.84;;;7.21;69.07
56944;BME280;42848;42.524;12.052;2023-04-06T09:34:39;96774.28;;;7.35;69.88
56944;BME280;42848;42.524;12.052;2023-04-06T09:37:15;96769.28;;;7.43;68.80
56944;BME280;42848;42.524;12.052;2023-04-06T09:39:41;96770.50;;;7.50;66.61
56944;BME280;42848;42.524;12.052;2023-04-06T09:42:07;96772.88;;;7.38;68.46
56944;BME280;42848;42.524;12.052;2023-04-06T09:44:33;96782.31;;;7.54;69.14
56944;BME280;42848;42.524;12.052;2023-04-06T09:46:58;96771.81;;;7.53;67.51
56944;BME280;42848;42.524;12.052;2023-04-06T09:49:27;96772.09;;;7.51;65.11
56944;BME280;42848;42.524;12.052;2023-04-06T09:51:55;96783.41;;;7.53;67.69
56944;BME280;42848;42.524;12.052;2023-04-06T09:54:23;96776.50;;;7.75;69.26
56944;BME280;42848;42.524;12.052;2023-04-06T09:57:07;96792.91;;;7.64;64.67
56944;BME280;42848;42.524;12.052;2023-04-06T09:59:44;96779.72;;;7.63;68.08
56944;BME280;42848;42.524;12.052;2023-04-06T10:02:20;96779.72;;;7.63;68.00
56944;BME280;42848;42.524;12.052;2023-04-06T10:05:16;96788.81;;;7.67;62.70
56944;BME280;42848;42.524;12.052;2023-04-06T10:07:46;96770.69;;;7.67;64.35
56944;BME280;42848;42.524;12.052;2023-04-06T10:10:14;96775.38;;;8.03;66.25
56944;BME280;42848;42.524;12.052;2023-04-06T10:12:40;96762.66;;;8.17;62.53
56944;BME280;42848;42.524;12.052;2023-04-06T10:15:08;96760.22;;;8.30;61.06
56944;BME280;42848;42.524;12.052;2023-04-06T10:17:34;96761.63;;;8.41;62.88
56944;BME280;42848;42.524;12.052;2023-04-06T10:20:06;96760.34;;;8.24;59.30
56944;BME280;42848;42.524;12.052;2023-04-06T10:22:49;96761.03;;;8.44;60.46
56944;BME280;42848;42.524;12.052;2023-04-06T10:25:29;96762.34;;;8.33;56.47
56944;BME280;42848;42.524;12.052;2023-04-06T10:28:05;96753.81;;;8.39;54.91
56944;BME280;42848;42.524;12.052;2023-04-06T10:30:32;96744.63;;;8.26;54.55
56944;BME280;42848;42.524;12.052;2023-04-06T10:32:58;96742.22;;;8.39;56.44
56944;BME280;42848;42.524;12.052;2023-04-06T10:35:24;96754.91;;;8.52;56.96
56944;BME280;42848;42.524;12.052;2023-04-06T10:38:03;96750.44;;;8.70;60.85
56944;BME280;42848;42.524;12.052;2023-04-06T10:40:30;96760.34;;;8.74;59.00
56944;BME280;42848;42.524;12.052;2023-04-06T10:43:11;96753.59;;;8.49;59.64
56944;BME280;42848;42.524;12.052;2023-04-06T10:45:38;96749.25;;;8.62;64.24
56944;BME280;42848;42.524;12.052;2023-04-06T10:48:17;96754.66;;;8.84;62.77
56944;BME280;42848;42.524;12.052;2023-04-06T10:50:53;96742.09;;;9.11;60.26
56944;BME280;42848;42.524;12.052;2023-04-06T10:53:24;96741.88;;;8.99;58.33
56944;BME280;42848;42.524;12.052;2023-04-06T10:55:51;96748.72;;;8.96;58.30
56944;BME280;42848;42.524;12.052;2023-04-06T10:58:17;96742.38;;;9.01;59.38
56944;BME280;42848;42.524;12.052;2023-04-06T11:00:48;96735.72;;;8.84;58.58
56944;BME280;42848;42.524;12.052;2023-04-06T11:03:16;96732.91;;;8.90;57.25
56944;BME280;42848;42.524;12.052;2023-04-06T11:05:46;96739.81;;;9.04;53.70
56944;BME280;42848;42.524;12.052;2023-04-06T11:08:26;96740.88;;;9.17;54.72
56944;BME280;42848;42.524;12.052;2023-04-06T11:11:03;96744.16;;;9.36;55.61
56944;BME280;42848;42.524;12.052;2023-04-06T11:13:43;96743.53;;;9.39;58.73
56944;BME280;42848;42.524;12.052;2023-04-06T11:16:19;96754.00;;;9.32;53.86
56944;BME280;42848;42.524;12.052;2023-04-06T11:18:50;96746.44;;;9.43;54.69
56944;BME280;42848;42.524;12.052;2023-04-06T11:21:16;96734.28;;;9.40;54.34
56944;BME280;42848;42.524;12.052;2023-04-06T11:23:42;96731.47;;;9.46;55.50
56944;BME280;42848;42.524;12.052;2023-04-06T11:26:14;96735.63;;;9.52;53.27
56944;BME280;42848;42.524;12.052;2023-04-06T11:28:43;96731.81;;;9.53;54.95
56944;BME280;42848;42.524;12.052;2023-04-06T11:31:10;96731.47;;;9.46;51.59
56944;BME280;42848;42.524;12.052;2023-04-06T11:33:37;96726.41;;;9.53;52.71
56944;BME280;42848;42.524;12.052;2023-04-06T11:36:05;96732.66;;;9.62;55.05
56944;BME280;42848;42.524;12.052;2023-04-06T11:38:32;96729.94;;;9.62;53.62
56944;BME280;42848;42.524;12.052;2023-04-06T11:40:58;96730.50;;;9.90;53.47
56944;BME280;42848;42.524;12.052;2023-04-06T11:43:30;96732.59;;;9.93;52.33
56944;BME280;42848;42.524;12.052;2023-04-06T11:46:03;96729.81;;;9.76;50.54
56944;BME280;42848;42.524;12.052;2023-04-06T11:48:30;96727.31;;;9.88;53.56
56944;BME280;42848;42.524;12.052;2023-04-06T11:50:59;96738.03;;;10.02;50.83
56944;BME280;42848;42.524;12.052;2023-04-06T11:53:29;96730.66;;;9.93;49.19
56944;BME280;42848;42.524;12.052;2023-04-06T11:55:55;96720.00;;;9.97;48.51
56944;BME280;42848;42.524;12.052;2023-04-06T11:58:21;96720.56;;;10.42;46.88
56944;BME280;42848;42.524;12.052;2023-04-06T12:00:47;96724.00;;;10.00;44.10
56944;BME280;42848;42.524;12.052;2023-04-06T12:03:13;96717.00;;;10.07;44.53
56944;BME280;42848;42.524;12.052;2023-04-06T12:05:39;96722.41;;;10.07;45.78
56944;BME280;42848;42.524;12.052;2023-04-06T12:08:04;96702.13;;;10.13;44.97
56944;BME280;42848;42.524;12.052;2023-04-06T12:10:30;96717.19;;;10.28;44.49
56944;BME280;42848;42.524;12.052;2023-04-06T12:12:56;96711.13;;;10.31;45.11
56944;BME280;42848;42.524;12.052;2023-04-06T12:15:21;96708.41;;;10.31;45.63
56944;BME280;42848;42.524;12.052;2023-04-06T12:17:47;96706.19;;;10.33;45.23
56944;BME280;42848;42.524;12.052;2023-04-06T12:20:14;96695.19;;;10.30;43.48
56944;BME280;42848;42.524;12.052;2023-04-06T12:22:40;96703.00;;;10.57;44.74
56944;BME280;42848;42.524;12.052;2023-04-06T12:25:06;96708.09;;;10.33;43.40
56944;BME280;42848;42.524;12.052;2023-04-06T12:27:32;96695.97;;;10.39;44.01
56944;BME280;42848;42.524;12.052;2023-04-06T12:29:58;96698.84;;;10.60;43.19
56944;BME280;42848;42.524;12.052;2023-04-06T12:32:24;96695.00;;;10.78;43.50
56944;BME280;42848;42.524;12.052;2023-04-06T12:34:53;96706.16;;;11.02;44.78
56944;BME280;42848;42.524;12.052;2023-04-06T12:37:19;96703.31;;;10.73;42.99
56944;BME280;42848;42.524;12.052;2023-04-06T12:39:45;96697.88;;;10.81;44.04
56944;BME280;42848;42.524;12.052;2023-04-06T12:42:11;96692.47;;;10.73;43.15
56944;BME280;42848;42.524;12.052;2023-04-06T12:44:38;96691.19;;;10.70;43.06
56944;BME280;42848;42.524;12.052;2023-04-06T12:47:03;96692.88;;;11.09;44.45
56944;BME280;42848;42.524;12.052;2023-04-06T12:49:30;96693.06;;;10.78;42.24
56944;BME280;42848;42.524;12.052;2023-04-06T12:51:56;96689.41;;;10.92;42.68
56944;BME280;42848;42.524;12.052;2023-04-06T12:54:22;96687.50;;;10.83;42.50